createdAt,value
2022-08-19T00:01:52.854Z,3.08
2022-08-19T00:04:26.364Z,2.92
2022-08-19T00:06:57.812Z,3.53
2022-08-19T00:09:29.441Z,3.15
2022-08-19T00:12:01.453Z,2.78
2022-08-19T00:14:35.915Z,3.00
2022-08-19T00:17:07.901Z,3.05
2022-08-19T00:19:40.007Z,2.95
2022-08-19T00:22:12.042Z,2.58
2022-08-19T00:24:51.047Z,2.78
2022-08-19T00:27:25.643Z,2.50
2022-08-19T00:30:01.230Z,2.90
2022-08-19T00:32:32.406Z,2.45
2022-08-19T00:35:05.073Z,3.13
2022-08-19T00:37:36.395Z,3.00
2022-08-19T00:40:09.703Z,2.22
2022-08-19T00:42:40.814Z,2.47
2022-08-19T00:45:21.260Z,2.22
2022-08-19T00:47:52.933Z,2.28
2022-08-19T00:50:25.998Z,2.38
2022-08-19T00:52:57.084Z,2.00
2022-08-19T00:55:31.410Z,2.40
2022-08-19T00:58:06.120Z,2.13
2022-08-19T01:00:40.235Z,1.67
2022-08-19T01:03:13.980Z,1.70
2022-08-19T01:05:47.201Z,1.80
2022-08-19T01:08:21.048Z,1.67
2022-08-19T01:10:54.164Z,1.88
2022-08-19T01:13:27.105Z,1.45
2022-08-19T01:16:03.547Z,1.60
2022-08-19T01:18:36.579Z,1.85
2022-08-19T01:21:17.440Z,1.73
2022-08-19T01:23:51.379Z,2.00
2022-08-19T01:26:25.440Z,1.30
2022-08-19T01:29:01.013Z,1.55
2022-08-19T01:31:34.619Z,1.25
2022-08-19T01:34:06.370Z,1.65
2022-08-19T01:36:41.040Z,1.50
2022-08-19T01:39:16.844Z,1.40
2022-08-19T01:41:48.260Z,1.30
2022-08-19T01:44:21.518Z,1.30
2022-08-19T01:46:53.258Z,1.85
2022-08-19T01:49:26.460Z,1.50
2022-08-19T01:51:59.742Z,1.50
2022-08-19T01:54:33.383Z,1.27
2022-08-19T01:57:07.767Z,1.60
2022-08-19T01:59:39.685Z,1.50
2022-08-19T02:02:11.848Z,1.40
2022-08-19T02:04:42.809Z,1.50
2022-08-19T02:07:13.909Z,1.75
2022-08-19T02:09:48.696Z,1.60
2022-08-19T02:12:21.959Z,1.15
2022-08-19T02:14:52.977Z,1.33
2022-08-19T02:17:24.409Z,1.50
2022-08-19T02:19:55.323Z,1.40
2022-08-19T02:22:27.081Z,1.30
2022-08-19T02:25:01.325Z,1.27
2022-08-19T02:27:32.223Z,1.85
2022-08-19T02:30:03.666Z,1.52
2022-08-19T02:32:35.077Z,1.58
2022-08-19T02:35:16.131Z,1.70
2022-08-19T02:38:00.428Z,1.65
2022-08-19T02:40:35.515Z,1.63
2022-08-19T02:43:08.521Z,1.63
2022-08-19T02:45:41.616Z,1.33
2022-08-19T02:48:14.925Z,1.15
2022-08-19T02:50:56.601Z,1.48
2022-08-19T02:53:30.280Z,1.40
2022-08-19T02:56:04.046Z,1.23
2022-08-19T02:58:35.349Z,1.40
2022-08-19T03:01:06.263Z,1.42
2022-08-19T03:03:37.635Z,1.23
2022-08-19T03:06:14.402Z,1.58
2022-08-19T03:08:47.516Z,1.05
2022-08-19T03:11:23.376Z,1.40
2022-08-19T03:13:55.570Z,1.40
2022-08-19T03:16:28.667Z,1.52
2022-08-19T03:19:05.830Z,1.60
2022-08-19T03:21:38.013Z,1.77
2022-08-19T03:24:12.303Z,1.70
2022-08-19T03:26:48.870Z,1.83
2022-08-19T03:29:30.190Z,1.35
2022-08-19T03:32:01.985Z,2.05
2022-08-19T03:34:37.155Z,2.38
2022-08-19T03:37:11.221Z,1.73
2022-08-19T03:39:44.724Z,2.20
2022-08-19T03:42:38.545Z,1.17
2022-08-19T03:45:11.795Z,1.73
2022-08-19T03:47:42.848Z,2.38
2022-08-19T03:50:13.867Z,1.58
2022-08-19T03:52:45.425Z,1.70
2022-08-19T03:55:18.693Z,1.90
2022-08-19T03:57:55.204Z,1.60
2022-08-19T04:00:29.769Z,1.90
2022-08-19T04:03:01.736Z,1.23
2022-08-19T04:05:33.616Z,1.58
2022-08-19T04:08:04.769Z,1.73
2022-08-19T04:10:39.530Z,1.63
2022-08-19T04:13:13.620Z,1.75
2022-08-19T04:15:47.450Z,1.88
2022-08-19T04:18:18.816Z,2.25
2022-08-19T04:20:51.425Z,1.50
2022-08-19T04:23:22.662Z,1.20
2022-08-19T04:25:54.177Z,1.20
2022-08-19T04:28:30.074Z,1.10
2022-08-19T04:31:02.402Z,2.03
2022-08-19T04:33:33.224Z,1.05
2022-08-19T04:36:04.710Z,1.85
2022-08-19T04:38:35.885Z,1.00
2022-08-19T04:41:20.504Z,1.08
2022-08-19T04:43:54.636Z,1.50
2022-08-19T04:46:39.523Z,1.35
2022-08-19T04:49:13.091Z,1.58
2022-08-19T04:51:46.688Z,1.80
2022-08-19T04:54:34.766Z,1.55
2022-08-19T04:57:11.464Z,1.00
2022-08-19T04:59:45.553Z,1.70
2022-08-19T05:02:16.328Z,1.73
2022-08-19T05:04:47.333Z,1.00
2022-08-19T05:07:18.308Z,1.17
2022-08-19T05:09:58.051Z,1.65
2022-08-19T05:12:30.000Z,1.38
2022-08-19T05:15:05.073Z,1.80
2022-08-19T05:17:38.739Z,1.10
2022-08-19T05:20:24.490Z,1.20
2022-08-19T05:22:55.580Z,1.00
2022-08-19T05:25:27.307Z,1.75
2022-08-19T05:27:58.036Z,1.20
2022-08-19T05:30:46.361Z,1.50
2022-08-19T05:33:17.828Z,1.42
2022-08-19T05:35:49.817Z,2.00
2022-08-19T05:38:21.510Z,1.50
2022-08-19T05:40:52.758Z,1.33
2022-08-19T05:43:23.878Z,1.45
2022-08-19T05:45:57.527Z,1.55
2022-08-19T05:48:28.802Z,1.10
2022-08-19T05:51:00.302Z,0.95
2022-08-19T05:53:31.089Z,0.90
2022-08-19T05:56:02.596Z,1.13
2022-08-19T05:58:34.286Z,1.17
2022-08-19T06:01:09.401Z,1.45
2022-08-19T06:03:40.838Z,1.52
2022-08-19T06:06:13.905Z,0.80
2022-08-19T06:08:49.767Z,1.20
2022-08-19T06:11:23.935Z,1.65
2022-08-19T06:14:00.106Z,1.17
2022-08-19T06:16:36.425Z,1.85
2022-08-19T06:19:09.914Z,2.30
2022-08-19T06:21:42.584Z,1.73
2022-08-19T06:24:20.715Z,0.82
2022-08-19T06:26:56.682Z,1.42
2022-08-19T06:29:31.113Z,0.85
2022-08-19T06:32:06.570Z,1.35
2022-08-19T06:34:38.833Z,0.88
2022-08-19T06:37:09.864Z,2.10
2022-08-19T06:39:44.336Z,1.00
2022-08-19T06:42:21.669Z,2.75
2022-08-19T06:44:55.302Z,2.33
2022-08-19T06:47:29.181Z,2.50
2022-08-19T06:50:05.234Z,1.33
2022-08-19T06:52:38.469Z,1.23
2022-08-19T06:55:10.987Z,1.20
2022-08-19T06:57:41.831Z,1.20
2022-08-19T07:00:15.249Z,2.40
2022-08-19T07:02:56.164Z,1.33
2022-08-19T07:05:31.282Z,1.23
2022-08-19T07:08:05.154Z,2.13
2022-08-19T07:10:37.734Z,2.60
2022-08-19T07:13:14.412Z,2.42
2022-08-19T07:15:47.551Z,2.50
2022-08-19T07:18:22.864Z,1.55
2022-08-19T07:20:54.204Z,2.00
2022-08-19T07:23:25.610Z,1.70
2022-08-19T07:25:58.192Z,1.50
2022-08-19T07:28:29.145Z,2.08
2022-08-19T07:30:59.921Z,1.98
2022-08-19T07:33:37.206Z,2.35
2022-08-19T07:36:09.093Z,2.03
2022-08-19T07:38:40.380Z,2.00
2022-08-19T07:41:11.913Z,2.45
2022-08-19T07:43:44.471Z,1.48
2022-08-19T07:46:16.140Z,1.13
2022-08-19T07:48:49.614Z,1.20
2022-08-19T07:51:35.927Z,1.30
2022-08-19T07:54:08.000Z,2.72
2022-08-19T07:56:38.736Z,1.42
2022-08-19T07:59:10.397Z,1.20
2022-08-19T08:01:42.278Z,1.58
2022-08-19T08:04:29.579Z,2.30
2022-08-19T08:09:50.255Z,1.70
2022-08-19T08:12:34.066Z,2.05
2022-08-19T08:15:12.773Z,2.42
2022-08-19T08:17:49.386Z,1.50
2022-08-19T08:20:25.741Z,1.67
2022-08-19T08:23:09.357Z,2.53
2022-08-19T08:25:41.196Z,1.58
2022-08-19T08:28:17.693Z,2.25
2022-08-19T08:33:34.090Z,2.20
2022-08-19T08:36:09.568Z,1.83
2022-08-19T08:38:41.872Z,1.83
2022-08-19T08:41:22.576Z,2.45
2022-08-19T08:43:56.698Z,1.35
2022-08-19T08:46:34.550Z,2.97
2022-08-19T08:49:12.681Z,1.50
2022-08-19T08:51:59.717Z,2.20
2022-08-19T08:54:37.546Z,2.42
2022-08-19T08:57:15.022Z,2.10
2022-08-19T08:59:51.731Z,2.15
2022-08-19T09:02:22.729Z,2.20
2022-08-19T09:04:53.852Z,2.10
2022-08-19T09:07:43.699Z,2.10
2022-08-19T09:10:26.159Z,2.22
2022-08-19T09:13:09.835Z,2.10
2022-08-19T09:15:47.560Z,1.60
2022-08-19T09:18:20.087Z,2.30
2022-08-19T09:20:51.556Z,1.88
2022-08-19T09:23:26.583Z,1.60
2022-08-19T09:25:58.529Z,1.70
2022-08-19T09:28:30.476Z,2.35
2022-08-19T09:31:03.342Z,2.10
2022-08-19T09:33:35.417Z,2.30
2022-08-19T09:36:08.823Z,1.55
2022-08-19T09:38:43.885Z,1.88
2022-08-19T09:41:17.667Z,1.80
2022-08-19T09:43:53.029Z,1.90
2022-08-19T09:46:25.337Z,1.88
2022-08-19T09:49:03.074Z,1.83
2022-08-19T09:51:38.646Z,1.85
2022-08-19T09:54:13.466Z,1.60
2022-08-19T09:56:44.391Z,1.63
2022-08-19T09:59:15.453Z,2.08
2022-08-19T10:01:46.499Z,1.40
2022-08-19T10:04:20.481Z,1.98
2022-08-19T10:06:55.435Z,1.80
2022-08-19T10:09:34.548Z,2.10
2022-08-19T10:12:11.301Z,1.90
2022-08-19T10:14:42.401Z,1.50
2022-08-19T10:17:19.271Z,1.60
2022-08-19T10:19:55.581Z,1.75
2022-08-19T10:22:27.272Z,1.65
2022-08-19T10:25:01.189Z,1.67
2022-08-19T10:27:32.506Z,1.63
2022-08-19T10:30:03.561Z,1.70
2022-08-19T10:32:35.432Z,2.00
2022-08-19T10:35:09.316Z,1.80
2022-08-19T10:37:57.237Z,1.55
2022-08-19T10:40:32.934Z,2.55
2022-08-19T10:43:04.033Z,1.90
2022-08-19T10:45:34.822Z,1.40
2022-08-19T10:48:05.868Z,1.48
2022-08-19T10:50:49.387Z,1.75
2022-08-19T10:53:21.261Z,2.35
2022-08-19T10:56:09.370Z,1.52
2022-08-19T10:58:40.323Z,1.48
2022-08-19T11:01:11.780Z,1.15
2022-08-19T11:03:43.200Z,1.08
2022-08-19T11:06:24.066Z,1.20
2022-08-19T11:08:55.583Z,1.45
2022-08-19T11:11:30.066Z,1.20
2022-08-19T11:14:01.636Z,1.05
2022-08-19T11:16:33.028Z,1.10
2022-08-19T11:19:04.568Z,0.98
2022-08-19T11:21:38.457Z,1.13
2022-08-19T11:24:12.718Z,1.90
2022-08-19T11:26:49.648Z,1.00
2022-08-19T11:31:54.236Z,1.08
2022-08-19T11:34:33.319Z,1.42
2022-08-19T11:37:07.019Z,1.00
2022-08-19T11:39:39.872Z,0.98
2022-08-19T11:42:26.290Z,0.98
2022-08-19T11:44:58.328Z,1.10
2022-08-19T11:47:30.268Z,1.10
2022-08-19T11:50:01.230Z,0.98
2022-08-19T11:52:32.541Z,1.52
2022-08-19T11:55:03.847Z,1.20
2022-08-19T11:57:37.774Z,0.90
2022-08-19T12:00:10.938Z,0.90
2022-08-19T12:02:41.764Z,1.05
2022-08-19T12:05:13.369Z,1.98
2022-08-19T12:07:45.578Z,1.63
2022-08-19T12:10:19.461Z,1.48
2022-08-19T12:12:58.652Z,1.40
2022-08-19T12:15:36.796Z,1.15
2022-08-19T12:18:09.204Z,1.10
2022-08-19T12:20:42.114Z,1.15
2022-08-19T12:23:14.575Z,1.20
2022-08-19T12:25:52.870Z,1.05
2022-08-19T12:28:29.444Z,0.90
2022-08-19T12:31:00.979Z,1.02
2022-08-19T12:33:33.250Z,1.25
2022-08-19T12:36:07.032Z,0.85
2022-08-19T12:38:38.827Z,1.30
2022-08-19T12:41:10.952Z,0.80
2022-08-19T12:43:45.070Z,0.80
2022-08-19T12:46:16.992Z,0.95
2022-08-19T12:48:54.065Z,1.08
2022-08-19T12:51:26.488Z,0.95
2022-08-19T12:53:57.364Z,0.98
2022-08-19T12:56:28.635Z,0.90
2022-08-19T12:59:02.104Z,0.85
2022-08-19T13:01:34.090Z,0.98
2022-08-19T13:04:04.840Z,0.82
2022-08-19T13:06:35.951Z,0.70
2022-08-19T13:09:07.268Z,0.82
2022-08-19T13:11:38.391Z,0.82
2022-08-19T13:14:12.409Z,1.13
2022-08-19T13:16:44.231Z,1.20
2022-08-19T13:19:15.055Z,1.08
2022-08-19T13:21:46.228Z,0.88
2022-08-19T13:24:17.637Z,0.90
2022-08-19T13:26:48.848Z,0.88
2022-08-19T13:29:34.732Z,0.85
2022-08-19T13:32:30.222Z,1.55
2022-08-19T13:35:01.638Z,1.40
2022-08-19T13:37:45.055Z,0.95
2022-08-19T13:40:19.661Z,0.85
2022-08-19T13:42:52.944Z,0.80
2022-08-19T13:45:28.934Z,0.80
2022-08-19T13:48:01.589Z,0.90
2022-08-19T13:50:35.012Z,0.80
2022-08-19T13:53:06.581Z,0.70
2022-08-19T13:55:37.943Z,1.67
2022-08-19T13:58:09.014Z,1.02
2022-08-19T14:00:47.370Z,0.82
2022-08-19T14:03:19.012Z,0.95
2022-08-19T14:05:51.197Z,0.80
2022-08-19T14:08:22.652Z,0.80
2022-08-19T14:10:54.336Z,0.60
2022-08-19T14:13:27.721Z,0.82
2022-08-19T14:16:01.933Z,0.80
2022-08-19T14:18:33.276Z,0.90
2022-08-19T14:21:05.946Z,0.47
2022-08-19T14:23:37.221Z,0.50
2022-08-19T14:26:10.026Z,0.60
2022-08-19T14:28:43.062Z,0.68
2022-08-19T14:31:20.569Z,0.13
2022-08-19T14:33:52.750Z,0.35
2022-08-19T14:36:25.835Z,0.30
2022-08-19T14:38:58.767Z,0.00
2022-08-19T14:41:31.489Z,0.50
2022-08-19T14:44:02.606Z,0.10
2022-08-19T14:46:36.353Z,0.50
2022-08-19T14:49:09.623Z,0.05
2022-08-19T14:51:40.908Z,0.38
2022-08-19T14:54:11.992Z,0.30
2022-08-19T14:56:45.256Z,0.52
2022-08-19T14:59:16.327Z,0.40
2022-08-19T15:01:50.030Z,0.20
2022-08-19T15:04:21.287Z,0.10
2022-08-19T15:06:52.242Z,0.20
2022-08-19T15:09:23.360Z,0.30
2022-08-19T15:11:54.389Z,0.17
2022-08-19T15:14:25.313Z,0.10
2022-08-19T15:16:59.949Z,0.20
2022-08-19T15:19:31.040Z,0.00
2022-08-19T15:22:02.920Z,0.10
2022-08-19T15:24:34.271Z,0.10
2022-08-19T15:27:06.423Z,0.20
2022-08-19T15:29:37.385Z,0.10
2022-08-19T15:32:11.852Z,0.20
2022-08-19T15:34:42.654Z,0.08
2022-08-19T15:37:13.658Z,0.20
2022-08-19T15:39:44.918Z,0.13
2022-08-19T15:42:29.470Z,0.10
2022-08-19T15:45:02.603Z,0.20
2022-08-19T15:47:36.418Z,0.20
2022-08-19T15:50:11.029Z,0.20
2022-08-19T15:52:49.841Z,0.10
2022-08-19T15:55:32.594Z,0.60
2022-08-19T15:58:20.592Z,0.15
2022-08-19T16:01:13.127Z,0.20
2022-08-19T16:03:59.627Z,0.20
2022-08-19T16:06:31.807Z,0.38
2022-08-19T16:09:05.130Z,0.45
2022-08-19T16:11:39.558Z,0.20
2022-08-19T16:14:12.402Z,0.40
2022-08-19T16:16:44.953Z,0.65
2022-08-19T16:19:20.795Z,0.70
2022-08-19T16:21:57.194Z,0.47
2022-08-19T16:24:30.096Z,0.93
2022-08-19T16:27:01.704Z,0.60
2022-08-19T16:29:39.340Z,0.65
2022-08-19T16:32:13.267Z,0.70
2022-08-19T16:34:47.043Z,0.43
2022-08-19T16:37:18.236Z,0.55
2022-08-19T16:39:51.685Z,0.70
2022-08-19T16:42:22.949Z,0.70
2022-08-19T16:44:54.496Z,0.68
2022-08-19T16:47:25.959Z,1.30
2022-08-19T16:49:59.493Z,1.10
2022-08-19T16:52:30.522Z,1.02
2022-08-19T16:55:01.620Z,0.70
2022-08-19T16:57:33.955Z,0.80
2022-08-19T17:00:09.391Z,0.63
2022-08-19T17:02:40.623Z,0.90
2022-08-19T17:05:15.289Z,1.23
2022-08-19T17:07:46.848Z,1.08
2022-08-19T17:10:18.454Z,1.05
2022-08-19T17:12:49.870Z,0.90
2022-08-19T17:15:20.814Z,1.08
2022-08-19T17:17:51.702Z,0.93
2022-08-19T17:20:25.514Z,0.90
2022-08-19T17:22:56.956Z,1.25
2022-08-19T17:25:28.549Z,1.00
2022-08-19T17:28:00.069Z,0.95
2022-08-19T17:30:32.105Z,1.38
2022-08-19T17:33:03.657Z,0.68
2022-08-19T17:35:37.469Z,1.33
2022-08-19T17:38:08.427Z,1.00
2022-08-19T17:40:40.816Z,1.65
2022-08-19T17:43:13.211Z,1.42
2022-08-19T17:45:46.330Z,1.58
2022-08-19T17:48:18.119Z,0.95
2022-08-19T17:50:52.554Z,1.67
2022-08-19T17:53:23.740Z,0.77
2022-08-19T17:55:54.722Z,2.20
2022-08-19T17:58:26.675Z,1.10
2022-08-19T18:01:00.967Z,1.40
2022-08-19T18:03:31.829Z,0.85
2022-08-19T18:06:05.803Z,1.00
2022-08-19T18:08:37.433Z,1.27
2022-08-19T18:11:10.021Z,1.27
2022-08-19T18:13:41.713Z,1.83
2022-08-19T18:16:13.721Z,1.10
2022-08-19T18:18:45.853Z,1.45
2022-08-19T18:21:19.775Z,1.63
2022-08-19T18:23:50.793Z,1.45
2022-08-19T18:26:26.327Z,1.65
2022-08-19T18:28:57.530Z,1.50
2022-08-19T18:31:29.613Z,1.65
2022-08-19T18:34:00.745Z,1.65
2022-08-19T18:36:53.010Z,1.48
2022-08-19T18:39:37.166Z,1.67
2022-08-19T18:42:28.555Z,1.13
2022-08-19T18:45:12.021Z,1.30
2022-08-19T18:47:55.251Z,1.50
2022-08-19T18:50:26.140Z,1.73
2022-08-19T18:53:00.118Z,1.48
2022-08-19T18:55:31.101Z,1.80
2022-08-19T18:58:03.158Z,1.33
2022-08-19T19:00:37.981Z,1.08
2022-08-19T19:03:08.810Z,1.75
2022-08-19T19:05:40.285Z,1.42
2022-08-19T19:08:15.811Z,1.60
2022-08-19T19:10:47.912Z,1.23
2022-08-19T19:13:21.909Z,1.60
2022-08-19T19:15:54.914Z,1.10
2022-08-19T19:18:26.210Z,1.50
2022-08-19T19:20:57.526Z,1.50
2022-08-19T19:23:31.127Z,1.50
2022-08-19T19:26:03.839Z,1.73
2022-08-19T19:28:34.880Z,1.30
2022-08-19T19:31:05.797Z,1.33
2022-08-19T19:33:36.862Z,1.80
2022-08-19T19:36:08.557Z,1.98
2022-08-19T19:38:48.217Z,1.60
2022-08-19T19:41:24.391Z,1.50
2022-08-19T19:44:29.999Z,1.20
2022-08-19T19:46:48.082Z,1.63
2022-08-19T19:49:19.366Z,1.58
2022-08-19T19:51:50.220Z,1.42
2022-08-19T19:54:24.625Z,1.08
2022-08-19T19:56:57.164Z,1.33
2022-08-19T19:59:29.276Z,1.45
2022-08-19T20:02:01.959Z,1.50
2022-08-19T20:04:32.939Z,1.42
2022-08-19T20:07:04.837Z,1.45
2022-08-19T20:09:58.432Z,1.58
2022-08-19T20:12:29.726Z,1.35
2022-08-19T20:15:00.817Z,1.50
2022-08-19T20:17:32.867Z,1.38
2022-08-19T20:20:03.837Z,1.70
2022-08-19T20:22:34.789Z,2.00
2022-08-19T20:25:11.546Z,1.75
2022-08-19T20:27:43.715Z,1.83
2022-08-19T20:30:19.475Z,1.85
2022-08-19T20:32:51.307Z,1.38
2022-08-19T20:35:25.383Z,2.80
2022-08-19T20:37:58.596Z,1.92
2022-08-19T20:40:35.499Z,1.73
2022-08-19T20:45:42.077Z,1.70
2022-08-19T20:48:14.238Z,1.38
2022-08-19T20:50:46.879Z,1.50
2022-08-19T20:53:20.053Z,1.30
2022-08-19T20:55:54.112Z,1.60
2022-08-19T20:58:31.936Z,1.30
2022-08-19T21:01:05.137Z,2.20
2022-08-19T21:03:43.072Z,1.92
2022-08-19T21:06:15.796Z,1.52
2022-08-19T21:08:47.249Z,1.25
2022-08-19T21:11:23.403Z,1.40
2022-08-19T21:13:54.461Z,1.33
2022-08-19T21:16:25.505Z,1.48
2022-08-19T21:18:56.428Z,1.75
2022-08-19T21:21:27.493Z,2.00
2022-08-19T21:23:58.632Z,1.60
2022-08-19T21:26:32.654Z,1.60
2022-08-19T21:29:03.967Z,1.58
2022-08-19T21:31:35.372Z,1.60
2022-08-19T21:34:06.214Z,1.70
2022-08-19T21:36:37.221Z,2.00
2022-08-19T21:39:08.671Z,1.75
2022-08-19T21:41:43.791Z,1.77
2022-08-19T21:44:15.109Z,1.60
2022-08-19T21:46:45.879Z,1.05
2022-08-19T21:49:21.481Z,1.35
2022-08-19T21:51:52.829Z,1.10
2022-08-19T21:54:23.774Z,1.50
2022-08-19T21:56:58.029Z,1.40
2022-08-19T21:59:28.859Z,1.50
2022-08-19T22:02:15.901Z,1.77
2022-08-19T22:04:51.118Z,2.22
2022-08-19T22:07:23.669Z,2.05
2022-08-19T22:09:54.747Z,1.88
2022-08-19T22:12:32.648Z,1.65
2022-08-19T22:15:04.384Z,2.03
2022-08-19T22:17:35.276Z,1.73
2022-08-19T22:20:09.141Z,1.80
2022-08-19T22:22:42.208Z,1.25
2022-08-19T22:25:25.713Z,1.55
2022-08-19T22:28:09.039Z,2.08
2022-08-19T22:30:44.024Z,1.33
2022-08-19T22:33:17.683Z,1.60
2022-08-19T22:35:50.184Z,1.85
2022-08-19T22:38:20.980Z,1.10
2022-08-19T22:40:54.745Z,1.80
2022-08-19T22:43:30.431Z,1.60
2022-08-19T22:46:02.687Z,1.33
2022-08-19T22:48:34.654Z,2.05
2022-08-19T22:51:17.914Z,1.65
2022-08-19T22:53:50.355Z,1.90
2022-08-19T22:56:22.190Z,1.25
2022-08-19T22:58:56.048Z,1.13
2022-08-19T23:01:29.969Z,1.83
2022-08-19T23:04:04.013Z,1.45
2022-08-19T23:06:39.131Z,1.30
2022-08-19T23:09:16.690Z,1.20
2022-08-19T23:11:48.687Z,1.30
2022-08-19T23:14:22.827Z,1.52
2022-08-19T23:16:57.029Z,1.50
2022-08-19T23:19:29.964Z,1.65
2022-08-19T23:22:00.753Z,1.08
2022-08-19T23:24:31.796Z,1.20
2022-08-19T23:27:15.031Z,1.40
2022-08-19T23:30:00.999Z,1.15
2022-08-19T23:32:32.348Z,1.05
2022-08-19T23:35:03.810Z,1.40
2022-08-19T23:37:35.497Z,1.70
2022-08-19T23:40:07.849Z,1.80
2022-08-19T23:42:49.043Z,1.30
2022-08-19T23:45:24.815Z,1.30
2022-08-19T23:47:56.408Z,1.80
2022-08-19T23:50:28.005Z,1.67
2022-08-19T23:53:02.257Z,1.67
2022-08-19T23:55:35.912Z,1.30
2022-08-19T23:58:10.320Z,1.52
